Pagina principale
METAR-TAF:

METAR-TAF

Aeroporti :

Aeroporto Internazionale di Baghdad

Baghdad, Iraq

latitudine: 33-15-45N, longitudine: 44-14-04E, altezza: 35 m

Osservazione

Il bollettino è stato emesso 56 minuti fa, alle 22:00 UTC
Vento 4 kt da ovest
Temperature 31°C
Umidità 31%
Pressione 1000 hPa
Visibilità 10 km o più
nessuna nube inferiore a 1500 m e nessun cumulonembo

METAR: ORBI 152200Z 27004KT CAVOK 31/12 Q1000 NOSIG

Ora: 01:56 (22:56 UTC)

Previsione

Il bollettino è stato emesso 6 ore e 56 minuti fa, alle 16:00 UTC
Previsione valida dal 15 alle 18 UTC al 16 alle 18 UTC
Vento 9 kt da ovest/nord-ovest
Visibilità 10 km o più
nessuna nube inferiore a 1500 m e nessun cumulonembo

TAF: ORBI 151600Z 1518/1618 30009KT CAVOK

Osservazioni e previsioni meteorologiche di più di 4000 aeroporti (messaggi METAR e TAF).

Le stazioni disponibili sono rappresentate dai dischi gialli e rossi sulla carta.

Puntare il mouse per vedere il nome della stazione.

Clicca sopra per visualizzare le osservazioni e previsioni meteorologiche.

Per cambiare la mappa : fare clic sui pulsanti verdi con una croce nera per ingrandire, il pulsante verde con un trattino per diminuire, o sulla freccia verde per le mappe adiacenti.


METAR-TAF: